• Join FlightAware (Why Join?)
  • Login
  • US Flag 
12:17AM EDT


 

Airport Tracker/Info


-or-


 

Live Flight TrackerFlight Track Log ✈ N396QS ✈ 09-Jul-2014 ✈ KAVL - KTEB

Flight Track Log - Related Links

Times and Time Zones

All times are in EDT time to prevent confusion due to time zone crossing. See the N396QS flight status page for this flight to view local times or setup timezone preferences in your user account.

Time Position Orientation Groundspeed Altitude Reporting Facility
EDT Latitude Longitude Course Direction KTS MPH feet Rate Location/Type
05:57PM 35.5219 -82.5894 357° North 248 285 7,600  Level Atlanta Center
05:58PM 35.5931 -82.5933 357° North 295 339 10,000 2,700 Climbing Atlanta Center
06:00PM 35.7689 -82.4928 25° Northeast 325 374 15,700 2,700 Climbing Atlanta Center
06:01PM 35.8642 -82.4397 24° Northeast 349 402 18,100 2,400 Climbing Atlanta Center
06:02PM 35.9486 -82.3586 38° Northeast 369 425 20,600 1,860 Climbing Atlanta Center
06:03PM 36.0139 -82.2392 56° Northeast 378 435 21,900 1,140 Climbing Atlanta Center
06:04PM 36.0617 -82.1019 67° East 416 479 22,900 540 Climbing Atlanta Center
06:05PM 36.0633 -81.9403 89° East 437 503 23,000  Climbing Atlanta Center
06:06PM 36.0606 -81.7836 91° East 442 509 23,000 120 Level Atlanta Center
06:07PM 36.0594 -81.6244 90° East 448 516 23,300 1,200 Climbing Atlanta Center
06:08PM 36.0625 -81.4675 89° East 454 522 25,400 2,100 Climbing Atlanta Center
06:09PM 36.0614 -81.3108 90° East 459 528 27,500 1,500 Climbing Atlanta Center
06:10PM 36.0617 -81.1492 90° East 459 528 28,500 960 Climbing Atlanta Center
06:11PM 36.0597 -80.9822 91° East 471 542 29,500 720 Climbing Atlanta Center
06:12PM 36.0761 -80.7992 84° East 477 549 30,000 900 Climbing Atlanta Center
06:13PM 36.1492 -80.6472 59° Northeast 484 557 31,400 1,500 Climbing Atlanta Center
06:14PM 36.2081 -80.5236 59° Northeast 477 549 33,000 1,380 Climbing Atlanta Center
06:15PM 36.3242 -80.3047 57° Northeast 456 525 35,000 720 Climbing Washington Center
06:16PM 36.3686 -80.1783 66° East 449 517 35,000  Level Washington Center
06:17PM 36.4306 -80.0272 63° Northeast 461 531 35,000  Level Washington Center
06:18PM 36.5047 -79.8842 57° Northeast 474 545 35,000  Level Washington Center
06:19PM 36.5808 -79.7356 57° Northeast 487 560 35,000  Level Washington Center
06:20PM 36.6525 -79.5919 58° Northeast 493 567 35,000 360 Level Washington Center
06:21PM 36.7239 -79.4506 58° Northeast 493 567 35,800 1,200 Climbing Washington Center
06:22PM 36.7931 -79.3139 58° Northeast 473 544 37,400 1,440 Climbing Washington Center
06:23PM 36.8639 -79.1744 58° Northeast 473 544 38,800 780 Climbing Washington Center
06:24PM 36.9328 -79.0375 58° Northeast 468 539 39,000 60 Climbing Washington Center
06:25PM 37.0056 -78.8922 58° Northeast 473 544 39,000 -240 Level Washington Center
06:26PM 37.0806 -78.7419 58° Northeast 487 560 38,600 -540 Descending Washington Center
06:27PM 37.1533 -78.5964 58° Northeast 487 560 38,000 -360 Descending Washington Center
06:28PM 37.2256 -78.4558 57° Northeast 482 555 38,000  Level Washington Center
06:29PM 37.3022 -78.2967 59° Northeast 482 555 38,000  Level Washington Center
06:30PM 37.3589 -78.1811 58° Northeast 482 555 38,000 -300 Level Washington Center
06:31PM 37.4497 -78.0378 51° Northeast 477 549 37,500 -900 Descending Washington Center
06:32PM 37.5603 -77.9314 37° Northeast 482 555 36,300 -1,440 Descending Washington Center
06:33PM 37.6708 -77.8192 39° Northeast 489 563 34,600 -1,680 Descending Washington Center
06:34PM 37.7792 -77.7069 39° Northeast 496 571 33,000 -840 Descending Washington Center
06:35PM 37.8875 -77.5967 39° Northeast 502 578 33,000  Level Washington Center
06:36PM 37.9978 -77.4836 39° Northeast 507 583 33,000  Level Washington Center
06:37PM 38.1081 -77.3678 40° Northeast 507 583 33,000  Level Washington Center
06:39PM 38.3486 -77.1644 49° Northeast 513 590 33,000 -120 Level Washington Center
06:40PM 38.4772 -77.0531 34° Northeast 508 585 32,700 -960 Descending Washington Center
06:41PM 38.5972 -76.9544 33° Northeast 508 585 31,100 -1,680 Descending Washington Center
06:42PM 38.7192 -76.8581 32° Northeast 508 585 29,400 -1,920 Descending Washington Center
06:43PM 38.8183 -76.7267 46° Northeast 508 585 27,400 -1,920 Descending Washington Center
06:44PM 38.9092 -76.5894 50° Northeast 502 578 25,500 -1,740 Descending Washington Center
06:45PM 38.9914 -76.4675 49° Northeast 478 550 24,000 -780 Descending Washington Center
06:46PM 39.0694 -76.3508 49° Northeast 444 511 24,000  Level Washington Center
06:47PM 39.1514 -76.2314 48° Northeast 439 505 24,000  Level Washington Center
06:48PM 39.2372 -76.1303 42° Northeast 439 505 24,000 -60 Level Washington Center
06:49PM 39.3314 -76.0369 37° Northeast 439 505 23,900 -2,280 Descending Washington Center
06:51PM 39.5333 -75.8500 36° Northeast 403 464 17,200 -3,360 Descending Philadelphia TRACON
06:52PM 39.6167 -75.7667 38° Northeast 384 442 14,200 -2,220 Descending Philadelphia TRACON
06:53PM 39.7000 -75.7000 32° Northeast 379 436 13,000 -600 Descending Philadelphia TRACON
06:54PM 39.8000 -75.6000 38° Northeast 389 448 13,000  Level Philadelphia TRACON
06:55PM 39.8667 -75.5333 37° Northeast 386 444 13,000  Level Philadelphia TRACON
06:56PM 39.9667 -75.4500 33° Northeast 395 455 13,000  Level Philadelphia TRACON
06:57PM 40.0500 -75.3667 37° Northeast 379 436 13,000  Level Philadelphia TRACON
06:58PM 40.1500 -75.2833 32° Northeast 386 444 13,000 -600 Level Philadelphia TRACON
06:59PM 40.2167 -75.2167 37° Northeast 368 423 12,000 -1,680 Descending Philadelphia TRACON
07:01PM 40.3333 -75.0833 41° Northeast 313 360 8,700 -1,740 Descending New York TRACON
07:02PM 40.4000 -75.0000 44° Northeast 309 356 7,100 -1,140 Descending New York TRACON
07:03PM 40.4500 -74.9167 52° Northeast 301 346 6,400 -1,500 Descending New York TRACON
07:04PM 40.5167 -74.8500 37° Northeast 292 336 4,100 -1,320 Descending New York TRACON
07:05PM 40.5667 -74.7667 52° Northeast 295 339 4,000 -60 Descending New York TRACON
07:06PM 40.6167 -74.6833 52° Northeast 300 345 4,000 -180 Level New York TRACON
07:07PM 40.6667 -74.6000 52° Northeast 288 331 3,700 -540 Descending New York TRACON
07:08PM 40.7333 -74.5167 43° Northeast 286 329 3,000 -360 Descending New York TRACON
07:09PM 40.7667 -74.4333 62° Northeast 257 296 3,000  Level New York TRACON
07:10PM 40.7833 -74.3500 75° East 253 291 3,000  Level New York TRACON
07:11PM 40.8333 -74.2667 52° Northeast 270 311 3,000 -240 Level New York TRACON
07:12PM 40.8667 -74.2000 57° Northeast 229 264 2,600 -540 Descending New York TRACON
07:13PM 40.8833 -74.1333 72° East 229 264 2,000 -660 Descending New York TRACON
07:15PM 40.8833 -74.0333 90° East 144 166 700 -660 Descending New York TRACON
07:17PM 40.8500 -74.0500 57° Northeast  Level FlightAware Approximate
07:24PM 40.8501 -74.0608 57° Northeast  Level Estimated